Time;durP1;ratioP1;P1;durP2;ratioP2;P2;SDS_P1;SDS_P2;PMS_P1;PMS_P2;Temp;Humidity;BMP_temperature;BMP_pressure;BME280_temperature;BME280_humidity;BME280_pressure;Samples;Min_cycle;Max_cycle;Signal;HPM_P1;HPM_P2
2021/09/20 00:02:02;;;;;;;12.40;7.07;;;;;;;13.32;87.06;101821.72;4970588;28;20137;-59
2021/09/20 00:04:29;;;;;;;10.25;6.68;;;;;;;13.26;87.78;101831.81;4975192;28;20108;-60
2021/09/20 00:06:55;;;;;;;10.40;6.38;;;;;;;13.23;87.80;101831.25;4972706;28;20124;-57
2021/09/20 00:09:22;;;;;;;12.77;7.35;;;;;;;13.20;87.48;101827.09;4974336;28;20057;-60
2021/09/20 00:11:49;;;;;;;11.45;6.63;;;;;;;13.17;87.29;101832.66;4976592;28;20060;-58
2021/09/20 00:14:16;;;;;;;11.05;6.95;;;;;;;13.14;87.83;101829.47;4968420;28;20146;-60
2021/09/20 00:16:42;;;;;;;11.50;7.15;;;;;;;13.14;87.30;101826.84;4970510;28;20153;-59
2021/09/20 00:19:09;;;;;;;12.57;7.47;;;;;;;13.10;88.12;101831.56;4968265;28;20042;-56
2021/09/20 00:21:35;;;;;;;11.65;6.88;;;;;;;13.09;87.90;101829.06;4978335;28;20145;-60
2021/09/20 00:24:02;;;;;;;11.25;7.05;;;;;;;13.01;87.75;101832.38;4970992;28;20164;-60
2021/09/20 00:26:28;;;;;;;14.02;7.10;;;;;;;13.08;87.11;101840.56;4976732;28;20142;-60
2021/09/20 00:28:55;;;;;;;11.43;7.28;;;;;;;13.03;86.64;101839.19;4972392;28;20078;-60
2021/09/20 00:31:21;;;;;;;12.15;7.80;;;;;;;12.98;87.25;101849.28;4969942;28;20133;-60
2021/09/20 00:33:48;;;;;;;10.38;6.60;;;;;;;12.99;87.19;101834.31;4978240;28;20058;-58
2021/09/20 00:36:14;;;;;;;12.48;7.32;;;;;;;13.00;87.33;101830.72;4971409;28;20246;-60
2021/09/20 00:38:41;;;;;;;13.35;7.10;;;;;;;12.97;87.62;101831.81;4976756;28;20575;-58
2021/09/20 00:41:08;;;;;;;18.75;7.78;;;;;;;12.96;87.96;101832.78;4972136;28;20141;-58
2021/09/20 00:43:37;;;;;;;12.18;7.20;;;;;;;12.94;87.84;101837.38;4967530;28;20157;-57
2021/09/20 00:46:07;;;;;;;10.77;6.75;;;;;;;12.92;87.83;101838.47;4971942;28;20560;-60
2021/09/20 00:48:33;;;;;;;10.95;6.80;;;;;;;12.88;87.48;101837.91;4966667;28;20050;-61
2021/09/20 00:51:00;;;;;;;13.88;7.15;;;;;;;12.84;87.63;101839.16;4972899;28;20053;-60
2021/09/20 00:53:26;;;;;;;13.00;6.95;;;;;;;12.78;88.12;101830.00;4966008;28;20101;-61
2021/09/20 00:55:53;;;;;;;12.32;7.28;;;;;;;12.79;88.73;101841.38;4970605;28;20129;-60
2021/09/20 00:58:20;;;;;;;13.00;8.15;;;;;;;12.77;88.96;101838.84;4966414;28;20065;-61
2021/09/20 01:00:47;;;;;;;11.82;7.20;;;;;;;12.75;89.03;101843.44;4976051;28;20240;-59
2021/09/20 01:03:14;;;;;;;14.50;7.93;;;;;;;12.73;90.13;101834.00;4977590;28;20154;-60
2021/09/20 01:05:40;;;;;;;13.15;7.38;;;;;;;12.72;89.20;101837.59;4969839;28;20475;-60
2021/09/20 01:08:07;;;;;;;13.57;8.30;;;;;;;12.68;90.48;101837.03;4976666;28;20105;-59
2021/09/20 01:10:33;;;;;;;14.40;7.63;;;;;;;12.65;90.53;101826.78;4970834;28;20134;-60
2021/09/20 01:13:00;;;;;;;13.32;7.82;;;;;;;12.58;90.43;101829.09;4970921;28;20056;-58
2021/09/20 01:15:27;;;;;;;15.57;8.38;;;;;;;12.55;90.80;101829.41;4970808;28;20720;-59
2021/09/20 01:17:53;;;;;;;14.68;8.30;;;;;;;12.51;90.75;101833.25;4975067;28;20415;-60
2021/09/20 01:20:22;;;;;;;13.85;8.57;;;;;;;12.47;91.65;101829.25;4977457;28;20141;-59
2021/09/20 01:22:57;;;;;;;18.98;9.85;;;;;;;12.49;91.48;101831.75;4969197;28;20133;-60
2021/09/20 01:25:23;;;;;;;18.85;10.85;;;;;;;12.49;91.93;101837.84;4970575;28;20408;-57
2021/09/20 01:27:50;;;;;;;21.02;10.95;;;;;;;12.44;91.78;101832.94;4969582;28;20050;-60
2021/09/20 01:30:16;;;;;;;20.50;10.25;;;;;;;12.44;92.62;101838.22;4977310;28;20098;-58
2021/09/20 01:32:43;;;;;;;18.48;10.70;;;;;;;12.43;91.40;101830.47;4971535;28;20479;-61
2021/09/20 01:35:09;;;;;;;16.90;9.75;;;;;;;12.42;90.87;101837.50;4977150;28;20148;-59
2021/09/20 01:37:36;;;;;;;19.15;9.60;;;;;;;12.40;91.33;101839.44;4972990;28;20137;-61
2021/09/20 01:40:03;;;;;;;20.30;9.90;;;;;;;12.36;91.27;101831.97;4965276;28;20089;-60
2021/09/20 01:42:30;;;;;;;17.77;10.93;;;;;;;12.38;90.48;101843.19;4977066;28;20057;-61
2021/09/20 01:44:57;;;;;;;21.80;11.77;;;;;;;12.40;90.42;101836.00;4968000;28;20785;-61
2021/09/20 01:47:23;;;;;;;22.65;10.80;;;;;;;12.39;90.27;101832.53;4976952;28;20142;-60
2021/09/20 01:49:49;;;;;;;20.17;11.32;;;;;;;12.36;90.35;101832.78;4969838;28;20137;-60
2021/09/20 01:52:16;;;;;;;30.52;14.13;;;;;;;12.37;89.76;101834.47;4970251;28;20070;-60
2021/09/20 01:54:43;;;;;;;26.77;13.00;;;;;;;12.31;90.09;101828.88;4974655;28;20478;-57
2021/09/20 01:57:09;;;;;;;20.52;11.63;;;;;;;12.29;90.22;101833.44;4972381;28;20189;-61
2021/09/20 01:59:36;;;;;;;23.67;11.48;;;;;;;12.29;89.91;101833.44;4976249;28;20153;-61
2021/09/20 02:02:02;;;;;;;22.38;11.25;;;;;;;12.28;90.26;101840.53;4971900;28;20451;-56
2021/09/20 02:04:29;;;;;;;24.13;11.55;;;;;;;12.24;89.97;101833.88;4973347;28;20919;-56
2021/09/20 02:06:56;;;;;;;20.80;10.65;;;;;;;12.23;89.49;101837.44;4964913;28;20124;-60
2021/09/20 02:09:22;;;;;;;19.95;10.18;;;;;;;12.19;89.78;101843.94;4977022;28;20097;-60
2021/09/20 02:11:49;;;;;;;23.25;11.10;;;;;;;12.15;89.43;101843.41;4978647;28;20085;-60
2021/09/20 02:14:15;;;;;;;26.33;10.70;;;;;;;12.16;90.43;101845.03;4972885;28;20150;-60
2021/09/20 02:16:42;;;;;;;18.02;9.90;;;;;;;12.14;90.04;101848.78;4978126;28;20105;-60
2021/09/20 02:19:09;;;;;;;19.42;9.40;;;;;;;12.13;89.21;101853.19;4967477;28;20116;-59
2021/09/20 02:21:35;;;;;;;16.92;9.88;;;;;;;12.15;88.81;101853.06;4973637;28;20678;-60
2021/09/20 02:24:02;;;;;;;21.67;9.80;;;;;;;12.12;90.12;101848.91;4972713;28;20488;-60
2021/09/20 02:26:28;;;;;;;18.17;9.32;;;;;;;12.10;89.90;101850.84;4980082;28;20086;-61
2021/09/20 02:28:55;;;;;;;19.00;9.45;;;;;;;12.06;89.83;101855.50;4980226;28;20144;-60
2021/09/20 02:31:21;;;;;;;18.33;9.77;;;;;;;12.07;89.58;101851.09;4972059;28;20147;-61
2021/09/20 02:33:48;;;;;;;16.55;9.70;;;;;;;12.04;90.05;101862.69;4973556;28;20054;-60
2021/09/20 02:36:15;;;;;;;14.45;8.85;;;;;;;12.02;89.75;101853.28;4971969;28;20149;-60
2021/09/20 02:38:42;;;;;;;14.55;8.43;;;;;;;12.02;89.78;101856.75;4975995;28;20444;-60
2021/09/20 02:41:09;;;;;;;16.42;9.00;;;;;;;11.99;89.96;101864.06;4969877;28;20057;-61
2021/09/20 02:43:35;;;;;;;15.07;8.82;;;;;;;11.99;89.83;101858.78;4977347;28;20136;-61
2021/09/20 02:46:02;;;;;;;14.05;8.48;;;;;;;11.96;89.97;101857.28;4976514;28;20134;-61
2021/09/20 02:48:29;;;;;;;13.63;8.00;;;;;;;11.95;88.80;101862.66;4968905;28;20767;-56
2021/09/20 02:50:56;;;;;;;19.92;9.60;;;;;;;11.94;90.13;101859.19;4979698;28;20058;-61
2021/09/20 02:53:22;;;;;;;13.75;7.75;;;;;;;11.91;90.41;101867.31;4970528;28;20049;-60
2021/09/20 02:55:49;;;;;;;19.27;8.73;;;;;;;11.92;91.20;101868.16;4977815;28;20157;-58
2021/09/20 02:58:16;;;;;;;14.57;8.50;;;;;;;11.87;91.78;101860.63;4979494;28;20058;-58
2021/09/20 03:00:42;;;;;;;13.02;7.88;;;;;;;11.86;91.30;101872.13;4949127;28;20059;-58
2021/09/20 03:03:09;;;;;;;12.63;7.65;;;;;;;11.83;91.86;101877.63;4974307;28;20058;-60
2021/09/20 03:05:37;;;;;;;13.32;7.70;;;;;;;11.81;93.10;101876.94;4974165;28;20043;-60
2021/09/20 03:08:05;;;;;;;13.82;8.38;;;;;;;11.71;94.03;101862.91;4976372;28;20690;-61
2021/09/20 03:10:33;;;;;;;14.98;8.00;;;;;;;11.76;94.23;101885.22;4973628;28;20054;-61
2021/09/20 03:13:00;;;;;;;16.92;8.07;;;;;;;11.79;93.44;101882.31;4976723;28;20089;-61
2021/09/20 03:15:27;;;;;;;13.80;7.80;;;;;;;11.79;94.53;101878.84;4971206;28;20137;-61
2021/09/20 03:17:53;;;;;;;17.17;8.25;;;;;;;11.81;93.83;101887.44;4962121;28;20133;-58
2021/09/20 03:20:20;;;;;;;14.77;8.38;;;;;;;11.77;93.87;101884.22;4975817;28;20148;-60
2021/09/20 03:22:46;;;;;;;16.45;8.15;;;;;;;11.72;94.63;101875.06;4969079;28;20089;-59
2021/09/20 03:25:13;;;;;;;14.40;7.40;;;;;;;11.72;94.65;101888.19;4977468;28;20502;-60
2021/09/20 03:27:41;;;;;;;15.68;8.90;;;;;;;11.64;94.71;101889.69;4971285;28;20164;-59
2021/09/20 03:30:08;;;;;;;17.50;10.20;;;;;;;11.59;94.33;101886.59;4973316;28;20746;-55
2021/09/20 03:32:35;;;;;;;18.43;10.80;;;;;;;11.56;96.05;101892.09;4977037;28;20137;-57
2021/09/20 03:35:04;;;;;;;11.43;7.32;;;;;;;11.64;93.80;101884.44;4975005;28;20082;-57
2021/09/20 03:37:30;;;;;;;13.27;8.75;;;;;;;11.66;94.70;101889.53;4977139;28;20056;-59
2021/09/20 03:39:57;;;;;;;13.95;8.38;;;;;;;11.64;94.59;101899.34;4971136;28;20109;-61
2021/09/20 03:42:24;;;;;;;14.88;8.20;;;;;;;11.65;94.56;101887.88;4971911;28;20054;-60
2021/09/20 03:44:50;;;;;;;15.13;8.23;;;;;;;11.62;94.80;101889.00;4969304;28;20173;-55
2021/09/20 03:47:17;;;;;;;16.30;8.02;;;;;;;11.65;94.82;101893.16;4973122;28;20531;-60
2021/09/20 03:49:44;;;;;;;13.15;8.15;;;;;;;11.65;94.45;101890.53;4970920;28;20154;-60
2021/09/20 03:52:10;;;;;;;13.93;8.05;;;;;;;11.64;94.67;101894.09;4974126;28;20053;-59
2021/09/20 03:54:37;;;;;;;14.38;8.30;;;;;;;11.64;94.85;101901.97;4972729;28;20132;-59
2021/09/20 03:57:03;;;;;;;13.55;7.93;;;;;;;11.63;94.26;101903.78;4965086;28;20137;-61
2021/09/20 03:59:30;;;;;;;15.77;8.40;;;;;;;11.68;94.18;101901.63;4975936;28;20149;-61
2021/09/20 04:01:56;;;;;;;15.02;8.60;;;;;;;11.66;94.23;101907.94;4968933;28;20062;-60
2021/09/20 04:04:23;;;;;;;12.60;7.65;;;;;;;11.68;94.85;101906.88;4979411;28;20054;-61
2021/09/20 04:06:50;;;;;;;15.82;8.80;;;;;;;11.68;94.62;101908.66;4971108;28;20133;-60
2021/09/20 04:09:17;;;;;;;14.63;7.85;;;;;;;11.68;94.70;101901.63;4973016;28;20603;-59
2021/09/20 04:11:44;;;;;;;13.07;8.20;;;;;;;11.70;94.22;101896.22;4973762;28;20532;-61
2021/09/20 04:14:10;;;;;;;14.60;7.65;;;;;;;11.66;94.86;101908.78;4970980;28;20571;-61
2021/09/20 04:16:38;;;;;;;15.38;8.18;;;;;;;11.63;95.33;101910.84;4975570;28;20215;-60
2021/09/20 04:19:04;;;;;;;14.65;8.63;;;;;;;11.59;96.39;101910.25;4968613;28;20077;-59
2021/09/20 04:21:31;;;;;;;17.48;8.40;;;;;;;11.55;95.54;101908.84;4978065;28;20163;-61
2021/09/20 04:23:57;;;;;;;13.38;7.38;;;;;;;11.55;95.19;101908.84;4966900;28;20054;-61
2021/09/20 04:26:24;;;;;;;13.73;8.43;;;;;;;11.58;95.30;101908.56;4972858;28;20050;-59
2021/09/20 04:28:50;;;;;;;14.88;7.70;;;;;;;11.53;95.65;101908.13;4977311;28;20124;-57
2021/09/20 04:31:17;;;;;;;12.75;7.57;;;;;;;11.59;95.15;101912.06;4969779;28;20090;-60
2021/09/20 04:33:43;;;;;;;16.05;8.40;;;;;;;11.58;95.09;101911.19;4975093;28;20054;-60
2021/09/20 04:36:10;;;;;;;13.27;7.88;;;;;;;11.58;95.14;101916.44;4964911;28;20133;-61
2021/09/20 04:38:36;;;;;;;12.80;8.30;;;;;;;11.58;95.93;101926.13;4971836;28;20299;-60
2021/09/20 04:41:03;;;;;;;12.50;8.07;;;;;;;11.56;94.87;101913.13;4969697;28;20169;-60
2021/09/20 04:43:29;;;;;;;15.45;7.57;;;;;;;11.56;95.61;101921.00;4978692;28;20494;-59
2021/09/20 04:45:56;;;;;;;21.50;9.13;;;;;;;11.55;96.80;101921.16;4976424;28;20133;-61
2021/09/20 04:48:22;;;;;;;11.68;7.30;;;;;;;11.51;96.43;101923.19;4969436;28;20492;-61
2021/09/20 04:50:52;;;;;;;27.30;9.30;;;;;;;11.53;96.57;101926.53;4974279;28;20141;-61
2021/09/20 04:53:19;;;;;;;20.02;8.95;;;;;;;11.51;96.85;101927.63;4967610;28;20111;-61
2021/09/20 04:55:47;;;;;;;17.58;8.27;;;;;;;11.52;96.75;101939.78;4976420;28;20137;-60
2021/09/20 04:58:14;;;;;;;15.00;8.77;;;;;;;11.51;96.44;101938.13;4971516;28;20054;-61
2021/09/20 05:00:41;;;;;;;17.20;8.32;;;;;;;11.51;96.75;101933.69;4975157;28;20065;-58
2021/09/20 05:03:08;;;;;;;13.30;7.43;;;;;;;11.51;95.87;101936.31;4975808;28;20560;-59
2021/09/20 05:05:34;;;;;;;14.50;7.78;;;;;;;11.50;96.77;101931.19;4963269;28;20054;-61
2021/09/20 05:08:01;;;;;;;16.90;8.43;;;;;;;11.51;96.39;101935.50;4972411;28;20058;-61
2021/09/20 05:10:28;;;;;;;14.77;8.68;;;;;;;11.60;95.91;101940.84;4971251;28;20113;-59
2021/09/20 05:12:54;;;;;;;13.32;8.20;;;;;;;11.59;96.58;101940.97;4976984;28;20483;-60
2021/09/20 05:15:21;;;;;;;12.63;7.93;;;;;;;11.61;95.80;101931.16;4970565;28;20119;-57
2021/09/20 05:17:48;;;;;;;11.65;7.10;;;;;;;11.58;96.89;101936.66;4973401;28;20420;-58
2021/09/20 05:20:15;;;;;;;14.73;8.13;;;;;;;11.60;96.96;101938.22;4970756;28;20078;-61
2021/09/20 05:22:42;;;;;;;15.85;9.18;;;;;;;11.60;96.80;101939.97;4968959;28;20049;-59
2021/09/20 05:25:10;;;;;;;13.23;7.45;;;;;;;11.66;96.22;101950.00;4975765;28;20090;-57
2021/09/20 05:27:37;;;;;;;15.35;9.07;;;;;;;11.64;96.45;101949.28;4971560;28;20138;-61
2021/09/20 05:30:07;;;;;;;16.85;8.82;;;;;;;11.60;96.94;101951.34;4975000;28;20068;-61
2021/09/20 05:32:33;;;;;;;15.32;8.85;;;;;;;11.60;97.21;101947.88;4966890;28;20759;-60
2021/09/20 05:35:00;;;;;;;15.73;8.45;;;;;;;11.67;97.00;101956.94;4973924;28;20058;-61
2021/09/20 05:37:27;;;;;;;14.07;8.32;;;;;;;11.59;97.45;101960.19;4980905;28;20246;-61
2021/09/20 05:39:53;;;;;;;18.63;9.38;;;;;;;11.64;96.89;101954.53;4972724;28;20141;-60
2021/09/20 05:42:20;;;;;;;21.13;11.85;;;;;;;11.60;98.51;101956.59;4979662;28;20085;-60
2021/09/20 05:44:48;;;;;;;17.52;10.45;;;;;;;11.61;98.22;101954.81;4974943;28;20077;-60
2021/09/20 05:47:15;;;;;;;18.63;9.33;;;;;;;11.57;98.70;101959.47;4974869;28;20077;-59
2021/09/20 05:49:41;;;;;;;17.65;9.05;;;;;;;11.61;98.92;101954.81;4970267;28;20141;-61
2021/09/20 05:52:08;;;;;;;15.48;9.05;;;;;;;11.59;99.46;101959.34;4979026;28;20931;-61
2021/09/20 05:54:34;;;;;;;16.50;9.68;;;;;;;11.61;99.41;101957.44;4980060;28;20054;-61
2021/09/20 05:57:00;;;;;;;20.08;11.68;;;;;;;11.59;99.93;101968.06;4975759;28;20078;-59
2021/09/20 05:59:27;;;;;;;27.98;12.88;;;;;;;11.58;100.00;101969.00;4979697;28;20070;-61
2021/09/20 06:01:54;;;;;;;15.25;10.20;;;;;;;11.58;100.00;101966.38;4967599;28;20587;-61
2021/09/20 06:04:20;;;;;;;19.30;9.93;;;;;;;11.67;100.00;101968.28;4973513;28;20050;-61
2021/09/20 06:06:47;;;;;;;24.27;9.90;;;;;;;11.73;100.00;101974.81;4973936;28;20141;-60
2021/09/20 06:09:13;;;;;;;19.33;10.15;;;;;;;11.68;100.00;101985.72;4978132;28;20088;-59
2021/09/20 06:11:40;;;;;;;25.83;11.00;;;;;;;11.68;100.00;101983.09;4978395;28;20173;-60
2021/09/20 06:14:06;;;;;;;23.70;10.80;;;;;;;11.73;100.00;101974.00;4969583;28;20054;-60
2021/09/20 06:16:33;;;;;;;23.20;11.35;;;;;;;11.77;100.00;101983.28;4973588;28;20145;-61
2021/09/20 06:18:59;;;;;;;21.17;10.10;;;;;;;11.76;100.00;101982.47;4972515;28;20090;-62
2021/09/20 06:21:26;;;;;;;17.48;9.85;;;;;;;11.82;99.47;101992.47;4977232;28;20609;-60
2021/09/20 06:23:52;;;;;;;16.20;9.05;;;;;;;11.83;98.73;101985.41;4974982;28;20174;-61
2021/09/20 06:26:19;;;;;;;18.05;9.77;;;;;;;12.05;97.32;102001.13;4975267;28;20174;-61
2021/09/20 06:28:46;;;;;;;18.70;8.80;;;;;;;12.16;95.52;101991.50;4973119;28;20137;-60
2021/09/20 06:31:12;;;;;;;17.98;10.48;;;;;;;12.15;95.60;101989.81;4970452;28;20096;-60
2021/09/20 06:33:38;;;;;;;16.25;9.13;;;;;;;12.36;92.98;101984.56;4974582;28;20714;-61
2021/09/20 06:36:05;;;;;;;16.73;9.85;;;;;;;12.52;92.60;101987.56;4969028;28;20733;-62
2021/09/20 06:38:32;;;;;;;17.85;10.25;;;;;;;12.57;91.01;101989.81;4977548;28;20053;-61
2021/09/20 06:40:58;;;;;;;21.23;11.23;;;;;;;12.66;90.87;101989.00;4964696;28;20078;-61
2021/09/20 06:43:26;;;;;;;20.60;10.68;;;;;;;12.68;90.57;101988.88;4971853;28;20780;-60
2021/09/20 06:45:54;;;;;;;19.35;10.73;;;;;;;12.82;89.15;101994.66;4976657;28;20515;-62
2021/09/20 06:48:21;;;;;;;15.25;9.32;;;;;;;12.73;89.32;101995.44;4967827;28;20500;-61
2021/09/20 06:50:47;;;;;;;17.27;10.05;;;;;;;12.79;88.79;101992.25;4974017;28;20908;-61
2021/09/20 06:53:14;;;;;;;18.15;10.45;;;;;;;12.84;87.97;101991.88;4971148;28;20193;-61
2021/09/20 06:55:40;;;;;;;17.67;9.93;;;;;;;12.91;87.40;101987.72;4974378;28;20422;-61
2021/09/20 06:58:07;;;;;;;15.20;9.88;;;;;;;12.57;90.09;101992.44;4968720;28;20082;-62
2021/09/20 07:00:33;;;;;;;16.67;10.13;;;;;;;12.75;87.61;101982.97;4970251;28;20137;-61
2021/09/20 07:03:00;;;;;;;15.55;9.32;;;;;;;12.64;87.46;101993.56;4978788;28;20054;-60
2021/09/20 07:05:27;;;;;;;18.85;9.02;;;;;;;12.68;85.95;101986.25;4970683;28;20348;-62
2021/09/20 07:07:55;;;;;;;15.05;9.18;;;;;;;12.89;84.55;101996.75;4976406;28;20047;-62
2021/09/20 07:10:21;;;;;;;15.80;10.13;;;;;;;12.88;82.57;101997.69;4959456;28;20054;-61
2021/09/20 07:12:49;;;;;;;15.57;8.40;;;;;;;13.04;82.03;101993.59;4975686;28;20050;-61
2021/09/20 07:15:16;;;;;;;17.17;9.07;;;;;;;12.98;81.93;101994.16;4973526;28;20050;-61
2021/09/20 07:17:42;;;;;;;16.38;9.70;;;;;;;13.04;82.18;101988.34;4966503;28;20137;-59
2021/09/20 07:20:11;;;;;;;17.13;11.38;;;;;;;13.14;82.06;101998.06;4974535;28;20575;-61
2021/09/20 07:22:38;;;;;;;15.75;9.30;;;;;;;13.23;81.64;101997.25;4963047;28;20082;-61
2021/09/20 07:25:06;;;;;;;13.67;9.60;;;;;;;13.04;82.70;101992.78;4971279;28;20046;-61
2021/09/20 07:27:32;;;;;;;16.23;9.65;;;;;;;13.08;82.01;101995.97;4967675;28;20065;-62
2021/09/20 07:29:59;;;;;;;17.95;10.57;;;;;;;13.29;81.48;102004.63;4973338;28;20087;-61
2021/09/20 07:32:25;;;;;;;14.85;9.50;;;;;;;13.36;80.62;102007.59;4976871;28;20169;-61
2021/09/20 07:34:52;;;;;;;15.07;9.38;;;;;;;13.31;80.34;102012.41;4967009;28;20049;-61
2021/09/20 07:37:18;;;;;;;13.52;9.80;;;;;;;13.45;80.50;102006.78;4969887;28;20561;-61
2021/09/20 07:39:45;;;;;;;15.05;8.55;;;;;;;13.44;79.46;102005.91;4960791;28;20567;-61
2021/09/20 07:42:12;;;;;;;14.68;9.32;;;;;;;13.52;80.68;102023.69;4971971;28;20047;-61
2021/09/20 07:44:38;;;;;;;13.30;8.70;;;;;;;13.69;80.81;102019.56;4966302;28;20647;-58
2021/09/20 07:47:04;;;;;;;17.88;8.88;;;;;;;13.78;78.65;102015.25;4974133;28;20515;-62
2021/09/20 07:49:32;;;;;;;13.75;8.18;;;;;;;13.86;79.00;102020.69;4971886;28;20105;-61
2021/09/20 07:51:59;;;;;;;14.87;9.00;;;;;;;13.95;78.72;102027.75;4962562;28;20061;-61
2021/09/20 07:54:26;;;;;;;16.25;9.30;;;;;;;13.90;76.72;102032.63;4968923;28;20375;-62
2021/09/20 07:56:52;;;;;;;13.63;9.05;;;;;;;13.93;77.61;102031.50;4967944;28;20058;-62
2021/09/20 07:59:19;;;;;;;13.75;8.57;;;;;;;13.97;77.03;102041.63;4971647;28;20168;-60
2021/09/20 08:01:45;;;;;;;15.02;9.00;;;;;;;13.94;77.30;102046.38;4964757;28;20082;-61
2021/09/20 08:04:12;;;;;;;14.52;8.68;;;;;;;13.99;77.89;102044.97;4971659;28;20426;-61
2021/09/20 08:06:39;;;;;;;14.98;8.50;;;;;;;14.10;76.84;102036.09;4968557;28;20164;-62
2021/09/20 08:09:05;;;;;;;13.68;9.23;;;;;;;14.11;77.26;102045.66;4969380;28;20057;-62
2021/09/20 08:11:32;;;;;;;13.93;9.70;;;;;;;14.28;77.46;102048.59;4975679;28;20514;-60
2021/09/20 08:13:58;;;;;;;25.52;9.85;;;;;;;14.33;76.00;102055.09;4969129;28;20090;-62
2021/09/20 08:16:25;;;;;;;12.80;9.20;;;;;;;14.40;75.13;102060.63;4974952;28;20092;-62
2021/09/20 08:18:51;;;;;;;20.60;9.48;;;;;;;14.48;73.75;102060.75;4967348;28;20782;-62
2021/09/20 08:21:18;;;;;;;23.90;8.88;;;;;;;14.17;76.07;102062.75;4966135;28;20050;-60
2021/09/20 08:23:45;;;;;;;13.95;9.35;;;;;;;13.95;77.65;102062.03;4976417;28;20551;-61
2021/09/20 08:26:11;;;;;;;14.23;9.48;;;;;;;13.89;77.76;102062.59;4970168;28;20557;-59
2021/09/20 08:28:38;;;;;;;15.40;9.80;;;;;;;13.87;78.00;102058.44;4976381;28;20134;-60
2021/09/20 08:31:04;;;;;;;14.93;8.70;;;;;;;13.89;78.06;102072.31;4968542;28;20161;-61
2021/09/20 08:33:32;;;;;;;14.45;10.15;;;;;;;13.92;76.71;102067.63;4972273;28;20341;-61
2021/09/20 08:35:58;;;;;;;14.07;9.38;;;;;;;13.96;76.33;102076.09;4968386;28;20058;-61
2021/09/20 08:38:25;;;;;;;13.10;9.45;;;;;;;14.01;74.98;102076.50;4975118;28;20074;-61
2021/09/20 08:40:52;;;;;;;14.77;8.73;;;;;;;14.07;74.55;102086.47;4975118;28;20086;-61
2021/09/20 08:43:20;;;;;;;14.93;9.13;;;;;;;14.10;74.46;102086.22;4967708;28;20086;-62
2021/09/20 08:45:47;;;;;;;16.33;9.27;;;;;;;14.18;74.61;102080.25;4972298;28;20133;-62
2021/09/20 08:48:14;;;;;;;11.30;8.50;;;;;;;14.30;74.44;102092.31;4964245;28;20065;-61
2021/09/20 08:50:40;;;;;;;10.88;7.28;;;;;;;14.43;74.35;102079.69;4972415;28;20569;-60
2021/09/20 08:53:08;;;;;;;13.77;8.63;;;;;;;14.62;73.94;102085.91;4967516;28;20168;-61
2021/09/20 08:55:36;;;;;;;11.00;8.02;;;;;;;14.83;73.06;102085.72;4974751;28;20627;-62
2021/09/20 08:58:04;;;;;;;13.23;9.00;;;;;;;14.93;71.84;102093.63;4974855;28;20047;-61
2021/09/20 09:00:31;;;;;;;13.03;8.70;;;;;;;15.01;70.17;102102.53;4963663;28;20085;-62
2021/09/20 09:03:00;;;;;;;12.07;8.57;;;;;;;15.15;70.51;102095.94;4972157;28;20057;-60
2021/09/20 09:05:29;;;;;;;12.27;8.65;;;;;;;15.31;70.66;102105.88;4967248;28;20055;-60
2021/09/20 09:07:57;;;;;;;;;;;;;;;15.47;68.56;102109.69;4976535;28;20085;-61
2021/09/20 09:10:26;;;;;;;11.65;7.38;;;;;;;15.62;69.99;102101.13;4968980;28;19926;-60
2021/09/20 09:12:54;;;;;;;12.02;8.32;;;;;;;15.76;68.77;102110.41;4979295;28;20137;-61
2021/09/20 09:15:23;;;;;;;13.20;7.90;;;;;;;15.88;66.49;102113.66;4973683;28;20090;-61
2021/09/20 09:17:53;;;;;;;12.68;8.80;;;;;;;16.02;66.26;102115.78;4967857;28;20046;-59
2021/09/20 09:20:26;;;;;;;11.65;7.88;;;;;;;16.17;66.63;102115.25;4978694;28;20057;-61
2021/09/20 09:22:57;;;;;;;11.00;7.82;;;;;;;16.31;65.70;102124.50;4970757;28;20439;-62
2021/09/20 09:25:37;;;;;;;11.88;7.32;;;;;;;16.40;63.31;102113.78;4979995;28;20871;-62
2021/09/20 09:28:28;;;;;;;10.65;7.63;;;;;;;16.49;63.53;102120.00;4968800;28;20050;-60
2021/09/20 09:31:02;;;;;;;10.77;6.50;;;;;;;16.59;62.67;102122.56;4973424;28;20110;-62
2021/09/20 09:33:39;;;;;;;11.48;6.97;;;;;;;16.79;61.48;102117.88;4974031;28;20879;-61
2021/09/20 09:36:10;;;;;;;11.07;7.50;;;;;;;16.96;61.60;102124.16;4978567;28;20085;-62
2021/09/20 09:38:55;;;;;;;9.35;6.88;;;;;;;17.05;61.50;102123.19;4978688;28;20480;-61
2021/09/20 09:41:35;;;;;;;10.07;6.72;;;;;;;17.08;57.83;102130.84;4978427;28;20484;-62
2021/09/20 09:44:04;;;;;;;11.73;6.63;;;;;;;17.19;61.11;102135.88;4972988;28;20152;-62
2021/09/20 09:46:41;;;;;;;11.50;7.47;;;;;;;17.28;58.56;102133.25;4973081;28;20137;-62
2021/09/20 09:49:16;;;;;;;12.85;7.25;;;;;;;17.41;58.53;102132.84;4978770;28;20145;-62
2021/09/20 09:52:00;;;;;;;13.95;6.90;;;;;;;17.58;57.62;102130.06;4969319;28;20089;-60
2021/09/20 09:54:32;;;;;;;8.63;6.10;;;;;;;17.82;59.78;102131.13;4979817;28;20582;-61
2021/09/20 09:57:11;;;;;;;9.93;6.55;;;;;;;17.98;56.68;102133.03;4970482;28;20153;-62
2021/09/20 09:59:39;;;;;;;10.77;6.07;;;;;;;18.09;57.67;102122.09;4975708;28;20445;-63
2021/09/20 10:02:27;;;;;;;10.20;6.43;;;;;;;18.41;55.91;102128.41;4970408;28;20137;-60
2021/09/20 10:05:09;;;;;;;8.98;5.82;;;;;;;18.53;56.25;102126.25;4979843;28;20284;-60
2021/09/20 10:07:43;;;;;;;9.95;5.90;;;;;;;18.59;54.79;102136.19;4973225;28;20050;-61
2021/09/20 10:10:12;;;;;;;9.52;6.10;;;;;;;18.74;53.35;102123.91;4976000;28;20492;-60
2021/09/20 10:12:41;;;;;;;9.43;6.40;;;;;;;18.83;54.74;102129.22;4975046;28;20141;-61
2021/09/20 10:15:10;;;;;;;11.27;6.72;;;;;;;19.05;53.32;102128.53;4968629;28;20191;-61
2021/09/20 10:17:38;;;;;;;9.23;6.47;;;;;;;19.20;53.18;102127.81;4976006;28;20046;-61
2021/09/20 10:20:07;;;;;;;13.07;6.28;;;;;;;19.32;52.45;102126.41;4971630;28;20081;-61
2021/09/20 10:22:34;;;;;;;9.10;6.60;;;;;;;19.48;54.16;102129.03;4977015;28;20056;-60
2021/09/20 10:25:03;;;;;;;10.95;6.30;;;;;;;19.27;51.15;102128.78;4966417;28;20757;-59
2021/09/20 10:27:31;;;;;;;8.95;6.97;;;;;;;19.00;50.97;102119.41;4978072;28;20082;-61
2021/09/20 10:30:05;;;;;;;12.55;6.10;;;;;;;18.88;51.63;102130.38;4976440;28;20491;-60
2021/09/20 10:32:32;;;;;;;9.93;7.20;;;;;;;18.93;50.89;102119.22;4976568;28;20065;-59
2021/09/20 10:35:29;;;;;;;9.38;6.47;;;;;;;19.33;53.04;102114.78;4977815;28;20051;-62
2021/09/20 10:37:58;;;;;;;8.40;6.00;;;;;;;19.48;52.74;102109.53;4970487;28;20695;-61
2021/09/20 10:40:25;;;;;;;7.75;5.97;;;;;;;19.41;51.58;102121.91;4973329;28;20599;-61
2021/09/20 10:42:57;;;;;;;11.63;6.00;;;;;;;19.27;51.68;102124.28;4973975;28;20058;-59
2021/09/20 10:45:49;;;;;;;8.98;6.22;;;;;;;19.16;52.76;102120.16;4978929;28;20077;-60
2021/09/20 10:48:19;;;;;;;8.93;6.38;;;;;;;19.21;50.58;102129.44;4971831;28;20050;-59
2021/09/20 10:50:53;;;;;;;7.90;6.35;;;;;;;19.14;51.17;102122.16;4974559;28;20161;-61
2021/09/20 10:53:33;;;;;;;12.85;6.80;;;;;;;19.56;51.11;102115.69;4966619;28;20070;-61
2021/09/20 10:56:07;;;;;;;8.43;5.88;;;;;;;19.93;50.37;102122.16;4978887;28;20065;-60
2021/09/20 10:58:35;;;;;;;8.13;6.15;;;;;;;20.02;52.37;102122.09;4980240;28;20112;-59
2021/09/20 11:01:32;;;;;;;11.40;6.68;;;;;;;20.07;51.30;102117.88;4970592;28;20145;-61
2021/09/20 11:04:05;;;;;;;9.63;6.60;;;;;;;19.88;51.53;102127.16;4970927;28;20136;-61
2021/09/20 11:06:34;;;;;;;9.77;6.53;;;;;;;19.74;52.15;102126.09;4965367;28;20235;-62
2021/09/20 11:09:03;;;;;;;9.68;6.63;;;;;;;19.62;52.50;102130.13;4976403;28;20050;-60
2021/09/20 11:11:40;;;;;;;9.60;6.20;;;;;;;19.51;53.76;102136.66;4972952;28;20146;-61
2021/09/20 11:14:13;;;;;;;10.15;6.97;;;;;;;19.47;52.91;102132.69;4973776;28;20061;-61
2021/09/20 11:16:58;;;;;;;13.27;6.65;;;;;;;19.52;53.88;102140.97;4973246;28;20081;-61
2021/09/20 11:19:24;;;;;;;12.55;7.53;;;;;;;19.55;52.79;102127.31;4970651;28;20137;-61
2021/09/20 11:22:13;;;;;;;8.52;6.10;;;;;;;19.87;55.67;102135.31;4974722;28;20054;-61